Terminal Aerodrome Forecast
Issued by NWS Binghamton, NY

Home | Current Version | Previous Version | Text Only | Print | Product List | Glossary On
Versions: 1 2 3 4 5 6 7 8 9 10 11 12 13 14 15 16 17 18 19 20 21 22 23 24 25 26 27 28 29
000
FTUS41 KBGM 262341
TAFBGM
TAF
KBGM 262341Z 2700/2724 15012KT P6SM OVC005
     FM270600 16010KT 3SM -RA BR OVC005 WS020/18035KT
     FM271500 21007KT P6SM OVC012
     FM272100 26008KT P6SM OVC025=

USA.gov is the U.S. government's official web portal to all federal, state and local government web resources and services.